createdAt,value
2022-08-23T00:01:26.726Z,17.70
2022-08-23T00:04:53.318Z,17.59
2022-08-23T00:08:07.213Z,17.54
2022-08-23T00:11:29.202Z,17.61
2022-08-23T00:14:34.855Z,17.69
2022-08-23T00:17:39.779Z,17.70
2022-08-23T00:20:44.011Z,17.74
2022-08-23T00:23:47.732Z,17.74
2022-08-23T00:27:15.563Z,17.72
2022-08-23T00:30:19.384Z,17.76
2022-08-23T00:33:23.007Z,17.84
2022-08-23T00:36:26.026Z,17.85
2022-08-23T00:39:28.929Z,17.78
2022-08-23T00:43:03.655Z,17.62
2022-08-23T00:46:41.563Z,17.56
2022-08-23T00:49:50.414Z,17.67
2022-08-23T00:53:13.111Z,17.74
2022-08-23T00:56:18.836Z,17.79
2022-08-23T00:59:22.192Z,17.76
2022-08-23T01:02:25.789Z,17.71
2022-08-23T01:05:52.841Z,17.62
2022-08-23T01:09:01.389Z,17.69
2022-08-23T01:12:16.130Z,17.68
2022-08-23T01:15:27.838Z,17.73
2022-08-23T01:18:32.078Z,17.72
2022-08-23T01:21:50.492Z,17.72
2022-08-23T01:25:07.497Z,17.74
2022-08-23T01:28:12.039Z,17.80
2022-08-23T01:31:17.123Z,17.73
2022-08-23T01:34:27.360Z,17.78
2022-08-23T01:37:30.192Z,17.73
2022-08-23T01:40:34.431Z,17.65
2022-08-23T01:43:38.054Z,17.58
2022-08-23T01:46:45.029Z,17.58
2022-08-23T01:49:48.454Z,17.69
2022-08-23T01:52:52.870Z,17.71
2022-08-23T01:55:56.432Z,17.81
2022-08-23T01:59:00.260Z,17.75
2022-08-23T02:02:05.363Z,17.75
2022-08-23T02:05:09.974Z,17.72
2022-08-23T02:08:32.757Z,17.84
2022-08-23T02:11:41.006Z,17.95
2022-08-23T02:14:43.949Z,18.00
2022-08-23T02:17:51.954Z,17.94
2022-08-23T02:20:56.471Z,18.03
2022-08-23T02:24:04.120Z,18.01
2022-08-23T02:27:08.158Z,17.96
2022-08-23T02:30:12.012Z,17.89
2022-08-23T02:33:15.413Z,17.94
2022-08-23T02:39:31.176Z,18.08
2022-08-23T02:42:34.837Z,18.07
2022-08-23T02:50:06.734Z,18.33
2022-08-23T02:53:10.356Z,18.23
2022-08-23T02:56:21.394Z,18.15
2022-08-23T02:59:25.034Z,17.89
2022-08-23T03:02:27.924Z,17.99
2022-08-23T03:05:32.038Z,18.05
2022-08-23T03:08:35.457Z,18.14
2022-08-23T03:11:43.522Z,18.06
2022-08-23T03:14:47.235Z,18.11
2022-08-23T03:17:50.978Z,18.16
2022-08-23T03:20:55.320Z,18.14
2022-08-23T03:23:58.541Z,18.08
2022-08-23T03:27:01.626Z,18.00
2022-08-23T03:30:09.540Z,17.91
2022-08-23T03:33:21.275Z,17.89
2022-08-23T03:36:27.721Z,17.91
2022-08-23T03:39:31.582Z,17.98
2022-08-23T03:42:34.639Z,18.03
2022-08-23T03:45:37.917Z,17.90
2022-08-23T03:48:42.922Z,18.04
2022-08-23T03:51:45.678Z,18.12
2022-08-23T03:54:51.601Z,18.09
2022-08-23T03:57:54.609Z,18.07
2022-08-23T04:00:57.984Z,18.06
2022-08-23T04:04:01.090Z,18.07
2022-08-23T04:07:05.184Z,18.12
2022-08-23T04:10:12.598Z,18.09
2022-08-23T04:13:15.726Z,18.10
2022-08-23T04:16:21.851Z,18.13
2022-08-23T04:19:24.894Z,18.05
2022-08-23T04:22:29.061Z,17.98
2022-08-23T04:25:35.482Z,17.82
2022-08-23T04:28:39.646Z,17.82
2022-08-23T04:31:45.037Z,17.82
2022-08-23T04:34:51.980Z,17.77
2022-08-23T04:37:54.776Z,17.76
2022-08-23T04:41:16.886Z,17.65
2022-08-23T04:44:21.867Z,17.61
2022-08-23T04:47:25.398Z,17.61
2022-08-23T04:50:28.361Z,17.56
2022-08-23T04:53:38.817Z,17.62
2022-08-23T04:56:42.992Z,17.55
2022-08-23T04:59:46.272Z,17.52
2022-08-23T05:02:51.183Z,17.53
2022-08-23T05:05:54.896Z,17.52
2022-08-23T05:08:58.819Z,17.48
2022-08-23T05:12:01.787Z,17.53
2022-08-23T05:15:06.172Z,17.45
2022-08-23T05:18:10.538Z,17.54
2022-08-23T05:21:20.045Z,17.47
2022-08-23T05:24:23.282Z,17.51
2022-08-23T05:27:26.948Z,17.53
2022-08-23T05:30:31.648Z,17.48
2022-08-23T05:33:35.259Z,17.48
2022-08-23T05:36:47.423Z,17.39
2022-08-23T05:39:57.954Z,17.42
2022-08-23T05:43:01.541Z,17.48
2022-08-23T05:46:07.038Z,17.49
2022-08-23T05:49:21.091Z,17.52
2022-08-23T05:52:24.096Z,17.56
2022-08-23T05:55:27.643Z,17.64
2022-08-23T05:58:39.871Z,17.61
2022-08-23T06:01:46.144Z,17.65
2022-08-23T06:04:57.131Z,17.68
2022-08-23T06:08:00.796Z,17.71
2022-08-23T06:11:09.362Z,17.78
2022-08-23T06:14:13.638Z,17.76
2022-08-23T06:17:18.281Z,17.83
2022-08-23T06:20:21.325Z,17.94
2022-08-23T06:23:25.013Z,18.10
2022-08-23T06:26:33.072Z,18.23
2022-08-23T06:29:36.569Z,18.35
2022-08-23T06:32:40.247Z,18.40
2022-08-23T06:36:04.729Z,18.38
2022-08-23T06:39:10.911Z,18.46
2022-08-23T06:45:39.039Z,18.45
2022-08-23T06:48:46.678Z,18.40
2022-08-23T06:51:55.361Z,18.26
2022-08-23T06:54:59.430Z,18.37
2022-08-23T06:58:03.566Z,18.38
2022-08-23T07:01:45.509Z,18.42
2022-08-23T07:04:54.215Z,18.42
2022-08-23T07:07:59.193Z,18.42
2022-08-23T07:11:01.968Z,18.25
2022-08-23T07:14:10.681Z,18.20
2022-08-23T07:17:14.675Z,18.18
2022-08-23T07:20:17.734Z,18.12
2022-08-23T07:23:21.987Z,18.16
2022-08-23T07:26:25.589Z,18.19
2022-08-23T07:29:30.932Z,18.27
2022-08-23T07:32:33.951Z,18.39
2022-08-23T07:35:46.178Z,18.34
2022-08-23T07:38:51.599Z,18.37
2022-08-23T07:41:55.253Z,18.44
2022-08-23T07:44:58.602Z,18.58
2022-08-23T07:48:03.482Z,18.53
2022-08-23T07:51:10.567Z,18.57
2022-08-23T07:54:13.895Z,18.62
2022-08-23T07:57:18.348Z,18.69
2022-08-23T08:00:21.355Z,18.83
2022-08-23T08:03:24.672Z,19.00
2022-08-23T08:06:42.783Z,19.08
2022-08-23T08:09:46.087Z,19.18
2022-08-23T08:12:50.156Z,19.23
2022-08-23T08:15:53.818Z,19.34
2022-08-23T08:19:01.084Z,19.12
2022-08-23T08:22:08.229Z,19.26
2022-08-23T08:25:15.734Z,19.23
2022-08-23T08:28:19.050Z,19.37
2022-08-23T08:31:23.607Z,19.39
2022-08-23T08:34:26.919Z,19.35
2022-08-23T08:37:31.241Z,19.30
2022-08-23T08:40:40.568Z,19.27
2022-08-23T08:44:16.430Z,19.35
2022-08-23T08:47:36.640Z,19.26
2022-08-23T08:50:45.058Z,19.34
2022-08-23T08:53:51.346Z,19.46
2022-08-23T08:56:59.758Z,19.70
2022-08-23T09:00:30.532Z,19.86
2022-08-23T09:03:36.075Z,19.73
2022-08-23T09:06:48.523Z,19.55
2022-08-23T09:10:09.916Z,19.63
2022-08-23T09:13:45.976Z,19.63
2022-08-23T09:16:58.009Z,19.52
2022-08-23T09:20:04.948Z,19.58
2022-08-23T09:23:23.337Z,19.68
2022-08-23T09:26:30.856Z,19.68
2022-08-23T09:29:36.444Z,19.65
2022-08-23T09:32:43.348Z,19.50
2022-08-23T09:36:05.511Z,19.44
2022-08-23T09:39:31.343Z,19.33
2022-08-23T09:42:38.416Z,19.32
2022-08-23T09:45:51.153Z,19.26
2022-08-23T09:49:02.211Z,19.37
2022-08-23T09:52:24.963Z,19.37
2022-08-23T09:55:40.216Z,19.48
2022-08-23T09:58:47.369Z,19.48
2022-08-23T10:01:52.810Z,19.52
2022-08-23T10:05:03.168Z,19.68
2022-08-23T10:08:10.292Z,19.64
2022-08-23T10:11:28.387Z,19.60
2022-08-23T10:14:35.549Z,19.70
2022-08-23T10:17:42.351Z,19.61
2022-08-23T10:20:54.825Z,19.57
2022-08-23T10:24:00.774Z,19.68
2022-08-23T10:27:53.296Z,19.82
2022-08-23T10:31:24.711Z,19.69
2022-08-23T10:34:52.288Z,19.62
2022-08-23T10:38:17.784Z,19.62
2022-08-23T10:41:27.216Z,19.67
2022-08-23T10:44:36.187Z,19.79
2022-08-23T10:47:52.806Z,19.86
2022-08-23T10:51:22.596Z,19.79
2022-08-23T10:54:36.043Z,19.66
2022-08-23T10:57:42.584Z,19.74
2022-08-23T11:00:46.509Z,19.77
2022-08-23T11:04:26.030Z,19.93
2022-08-23T11:07:37.060Z,19.97
2022-08-23T11:10:40.356Z,19.94
2022-08-23T11:13:54.255Z,20.04
2022-08-23T11:17:06.414Z,19.97
2022-08-23T11:20:12.843Z,19.96
2022-08-23T11:23:36.213Z,20.03
2022-08-23T11:26:42.455Z,20.11
2022-08-23T11:29:46.354Z,20.19
2022-08-23T11:32:51.965Z,20.33
2022-08-23T11:36:17.911Z,20.07
2022-08-23T11:39:26.966Z,20.06
2022-08-23T11:42:30.021Z,20.15
2022-08-23T11:45:45.238Z,20.38
2022-08-23T11:49:27.358Z,20.53
2022-08-23T11:52:48.465Z,20.67
2022-08-23T11:56:28.983Z,20.85
2022-08-23T11:59:50.632Z,21.17
2022-08-23T12:03:04.861Z,21.63
2022-08-23T12:06:39.215Z,22.22
2022-08-23T12:09:43.248Z,22.32
2022-08-23T12:13:19.563Z,22.93
2022-08-23T12:16:24.311Z,23.21
2022-08-23T12:19:40.783Z,23.60
2022-08-23T12:23:08.305Z,24.45
2022-08-23T12:26:40.578Z,24.84
2022-08-23T12:29:56.543Z,24.62
2022-08-23T12:33:10.059Z,24.06
2022-08-23T12:36:30.381Z,23.55
2022-08-23T12:39:37.360Z,23.51
2022-08-23T12:42:41.589Z,23.57
2022-08-23T12:45:51.328Z,24.11
2022-08-23T12:48:55.132Z,23.67
2022-08-23T12:52:01.820Z,23.57
2022-08-23T12:55:14.513Z,23.63
2022-08-23T12:58:31.733Z,23.58
2022-08-23T13:01:39.274Z,23.60
2022-08-23T13:04:43.761Z,23.84
2022-08-23T13:07:46.528Z,23.83
2022-08-23T13:10:50.143Z,23.77
2022-08-23T13:13:55.556Z,23.90
2022-08-23T13:17:32.332Z,23.54
2022-08-23T13:20:36.763Z,23.37
2022-08-23T13:23:39.770Z,23.14
2022-08-23T13:26:47.247Z,23.91
2022-08-23T13:29:51.415Z,23.77
2022-08-23T13:33:14.037Z,24.03
2022-08-23T13:36:21.691Z,24.41
2022-08-23T13:39:24.494Z,24.98
2022-08-23T13:42:34.113Z,24.95
2022-08-23T13:45:45.655Z,24.87
2022-08-23T13:49:06.081Z,25.26
2022-08-23T13:55:43.991Z,25.16
2022-08-23T13:59:19.905Z,24.57
2022-08-23T14:02:24.214Z,24.45
2022-08-23T14:05:27.298Z,24.29
2022-08-23T14:08:29.980Z,24.05
2022-08-23T14:11:34.128Z,23.72
2022-08-23T14:14:38.508Z,23.65
2022-08-23T14:17:48.263Z,23.79
2022-08-23T14:20:51.273Z,23.61
2022-08-23T14:23:54.831Z,23.47
2022-08-23T14:26:57.931Z,23.21
2022-08-23T14:30:01.378Z,23.35
2022-08-23T14:33:04.560Z,23.74
2022-08-23T14:36:08.070Z,23.76
2022-08-23T14:39:14.772Z,23.89
2022-08-23T14:42:24.370Z,23.76
2022-08-23T14:45:27.497Z,24.07
2022-08-23T14:48:30.678Z,24.08
2022-08-23T14:51:36.857Z,24.21
2022-08-23T14:54:46.445Z,24.38
2022-08-23T14:57:51.945Z,24.13
2022-08-23T15:00:54.963Z,23.72
2022-08-23T15:04:01.756Z,23.90
2022-08-23T15:07:20.704Z,23.62
2022-08-23T15:13:55.310Z,23.65
2022-08-23T15:17:00.028Z,23.57
2022-08-23T15:20:03.974Z,23.64
2022-08-23T15:23:08.459Z,23.53
2022-08-23T15:26:13.929Z,23.40
2022-08-23T15:29:19.073Z,23.43
2022-08-23T15:32:23.444Z,23.44
2022-08-23T15:35:27.499Z,23.64
2022-08-23T15:38:34.341Z,23.55
2022-08-23T15:41:37.150Z,23.37
2022-08-23T15:44:40.159Z,23.32
2022-08-23T15:47:51.623Z,23.14
2022-08-23T15:50:58.249Z,23.03
2022-08-23T15:54:01.007Z,23.15
2022-08-23T15:57:05.215Z,22.99
2022-08-23T16:00:08.479Z,22.91
2022-08-23T16:03:19.863Z,22.87
2022-08-23T16:06:36.249Z,22.71
2022-08-23T16:09:39.333Z,22.73
2022-08-23T16:12:42.333Z,22.82
2022-08-23T16:15:47.012Z,22.75
2022-08-23T16:18:51.711Z,22.74
2022-08-23T16:21:54.851Z,22.60
2022-08-23T16:24:58.388Z,22.50
2022-08-23T16:28:01.336Z,22.51
2022-08-23T16:31:04.466Z,22.29
2022-08-23T16:34:15.378Z,22.14
2022-08-23T16:37:18.402Z,22.05
2022-08-23T16:40:21.524Z,21.95
2022-08-23T16:43:24.510Z,21.82
2022-08-23T16:46:29.051Z,21.81
2022-08-23T16:49:33.757Z,21.64
2022-08-23T16:52:36.662Z,21.41
2022-08-23T16:55:40.113Z,21.33
2022-08-23T16:58:44.036Z,21.22
2022-08-23T17:02:01.005Z,21.15
2022-08-23T17:05:17.307Z,21.10
2022-08-23T17:08:20.242Z,20.98
2022-08-23T17:11:23.229Z,20.89
2022-08-23T17:14:35.271Z,20.83
2022-08-23T17:17:39.447Z,20.78
2022-08-23T17:20:43.872Z,20.70
2022-08-23T17:23:46.659Z,20.68
2022-08-23T17:26:50.790Z,20.61
2022-08-23T17:29:54.741Z,20.45
2022-08-23T17:32:58.500Z,20.42
2022-08-23T17:36:01.451Z,20.33
2022-08-23T17:39:10.358Z,20.24
2022-08-23T17:42:13.486Z,20.19
2022-08-23T17:45:16.755Z,20.17
2022-08-23T17:48:22.058Z,20.08
2022-08-23T17:51:25.187Z,20.05
2022-08-23T17:54:29.265Z,19.90
2022-08-23T17:57:35.575Z,19.84
2022-08-23T18:00:39.634Z,19.81
2022-08-23T18:03:42.804Z,19.79
2022-08-23T18:06:46.118Z,19.81
2022-08-23T18:09:49.489Z,19.86
2022-08-23T18:12:53.106Z,19.89
2022-08-23T18:15:56.222Z,19.96
2022-08-23T18:19:00.765Z,19.90
2022-08-23T18:22:04.214Z,19.93
2022-08-23T18:25:09.766Z,20.06
2022-08-23T18:28:14.422Z,20.00
2022-08-23T18:31:17.445Z,20.21
2022-08-23T18:34:21.031Z,19.98
2022-08-23T18:37:24.167Z,20.08
2022-08-23T18:40:28.176Z,20.02
2022-08-23T18:43:37.080Z,19.96
2022-08-23T18:46:43.773Z,19.88
2022-08-23T18:49:46.834Z,19.96
2022-08-23T18:52:50.144Z,19.95
2022-08-23T18:55:54.678Z,19.88
2022-08-23T18:58:58.089Z,19.77
2022-08-23T19:02:01.335Z,19.77
2022-08-23T19:05:05.136Z,19.79
2022-08-23T19:08:09.284Z,19.77
2022-08-23T19:11:12.860Z,19.72
2022-08-23T19:14:16.943Z,19.68
2022-08-23T19:17:20.392Z,19.74
2022-08-23T19:20:23.706Z,19.71
2022-08-23T19:23:27.094Z,19.72
2022-08-23T19:26:34.742Z,19.78
2022-08-23T19:29:38.221Z,19.66
2022-08-23T19:32:41.157Z,19.61
2022-08-23T19:35:44.855Z,19.45
2022-08-23T19:38:47.905Z,19.47
2022-08-23T19:41:51.384Z,19.33
2022-08-23T19:44:54.880Z,19.29
2022-08-23T19:48:00.225Z,19.41
2022-08-23T19:51:03.556Z,19.47
2022-08-23T19:54:11.500Z,19.50
2022-08-23T19:57:15.229Z,19.27
2022-08-23T20:00:19.813Z,19.33
2022-08-23T20:03:23.381Z,19.41
2022-08-23T20:06:26.530Z,19.29
2022-08-23T20:09:32.498Z,19.37
2022-08-23T20:12:35.360Z,19.35
2022-08-23T20:15:40.018Z,19.37
2022-08-23T20:18:43.855Z,19.23
2022-08-23T20:21:47.423Z,19.14
2022-08-23T20:24:52.958Z,19.11
2022-08-23T20:27:57.073Z,19.08
2022-08-23T20:31:22.859Z,18.94
2022-08-23T20:34:28.457Z,18.96
2022-08-23T20:37:31.546Z,19.13
2022-08-23T20:40:34.556Z,18.98
2022-08-23T20:43:39.267Z,19.08
2022-08-23T20:46:44.269Z,18.99
2022-08-23T20:49:47.116Z,19.02
2022-08-23T20:52:51.434Z,18.97
2022-08-23T20:55:54.597Z,18.97
2022-08-23T20:58:57.694Z,18.84
2022-08-23T21:02:00.445Z,18.80
2022-08-23T21:05:06.373Z,18.69
2022-08-23T21:08:12.840Z,18.69
2022-08-23T21:11:16.535Z,18.72
2022-08-23T21:14:20.812Z,18.67
2022-08-23T21:17:23.835Z,18.62
2022-08-23T21:20:26.560Z,18.51
2022-08-23T21:23:29.606Z,18.46
2022-08-23T21:26:32.416Z,18.41
2022-08-23T21:29:36.571Z,18.55
2022-08-23T21:32:39.293Z,18.58
2022-08-23T21:35:42.552Z,18.55
2022-08-23T21:38:45.423Z,18.56
2022-08-23T21:41:48.626Z,18.49
2022-08-23T21:44:51.334Z,18.34
2022-08-23T21:47:55.312Z,17.82
2022-08-23T21:51:01.253Z,17.62
2022-08-23T21:54:05.889Z,17.90
2022-08-23T21:57:08.562Z,18.11
2022-08-23T22:00:14.357Z,18.04
2022-08-23T22:03:18.539Z,17.99
2022-08-23T22:06:21.251Z,18.21
2022-08-23T22:09:27.424Z,17.98
2022-08-23T22:12:34.573Z,18.02
2022-08-23T22:15:37.658Z,17.98
2022-08-23T22:18:40.479Z,17.99
2022-08-23T22:21:44.692Z,17.98
2022-08-23T22:24:47.731Z,18.06
2022-08-23T22:27:51.498Z,18.13
2022-08-23T22:30:57.919Z,18.07
2022-08-23T22:34:02.609Z,17.92
2022-08-23T22:37:05.268Z,17.95
2022-08-23T22:40:12.189Z,18.00
2022-08-23T22:43:17.420Z,18.11
2022-08-23T22:46:22.111Z,18.02
2022-08-23T22:49:26.383Z,18.03
2022-08-23T22:52:29.675Z,18.11
2022-08-23T22:55:32.395Z,18.15
2022-08-23T22:58:36.028Z,18.18
2022-08-23T23:01:44.284Z,18.12
2022-08-23T23:04:47.513Z,18.11
2022-08-23T23:08:10.347Z,18.12
2022-08-23T23:11:17.611Z,18.32
2022-08-23T23:14:21.653Z,18.38
2022-08-23T23:17:24.707Z,18.35
2022-08-23T23:20:40.959Z,18.36
2022-08-23T23:23:43.976Z,18.47
2022-08-23T23:30:10.334Z,18.38
2022-08-23T23:33:14.988Z,18.45
2022-08-23T23:36:19.608Z,18.33
2022-08-23T23:39:22.397Z,18.22
2022-08-23T23:42:25.449Z,18.22
2022-08-23T23:45:28.483Z,18.25
2022-08-23T23:48:31.602Z,18.29
2022-08-23T23:51:34.594Z,18.18
2022-08-23T23:54:38.667Z,18.11
2022-08-23T23:57:41.762Z,18.01
